createdAt,value
2023-03-12T00:00:11.748Z,5.83
2023-03-12T00:02:41.207Z,8.50
2023-03-12T00:05:09.511Z,6.90
2023-03-12T00:07:38.753Z,7.53
2023-03-12T00:10:09.717Z,4.67
2023-03-12T00:12:37.823Z,7.53
2023-03-12T00:15:06.468Z,6.27
2023-03-12T00:17:34.234Z,5.23
2023-03-12T00:20:01.841Z,6.60
2023-03-12T00:22:29.546Z,6.10
2023-03-12T00:24:58.239Z,7.60
2023-03-12T00:27:28.604Z,4.70
2023-03-12T00:29:56.361Z,5.97
2023-03-12T00:32:24.698Z,4.93
2023-03-12T00:34:52.544Z,5.97
2023-03-12T00:37:20.305Z,4.00
2023-03-12T00:39:47.993Z,6.37
2023-03-12T00:42:15.993Z,4.80
2023-03-12T00:44:45.442Z,4.83
2023-03-12T00:47:13.972Z,6.80
2023-03-12T00:49:41.761Z,4.90
2023-03-12T00:52:09.570Z,5.97
2023-03-12T00:54:37.531Z,5.50
2023-03-12T00:57:05.677Z,4.17
2023-03-12T00:59:33.640Z,4.63
2023-03-12T01:02:02.660Z,8.23
2023-03-12T01:04:30.371Z,4.70
2023-03-12T01:06:58.192Z,5.90
2023-03-12T01:09:25.959Z,5.23
2023-03-12T01:11:55.687Z,4.30
2023-03-12T01:14:24.182Z,5.17
2023-03-12T01:16:53.849Z,6.90
2023-03-12T01:19:22.944Z,4.03
2023-03-12T01:21:50.605Z,3.93
2023-03-12T01:24:18.271Z,4.93
2023-03-12T01:26:45.951Z,4.40
2023-03-12T01:29:13.647Z,5.03
2023-03-12T01:31:41.386Z,7.90
2023-03-12T01:34:12.365Z,8.90
2023-03-12T01:36:41.769Z,6.13
2023-03-12T01:39:09.502Z,6.77
2023-03-12T01:41:37.384Z,8.37
2023-03-12T01:44:05.661Z,9.57
2023-03-12T01:46:34.967Z,5.33
2023-03-12T01:49:08.793Z,7.30
2023-03-12T01:51:41.048Z,7.13
2023-03-12T01:54:14.122Z,4.97
2023-03-12T01:56:42.893Z,6.93
2023-03-12T01:59:18.848Z,2.90
2023-03-12T02:01:47.243Z,6.80
2023-03-12T02:04:17.083Z,3.53
2023-03-12T02:06:50.099Z,1.90
2023-03-12T02:09:21.456Z,4.57
2023-03-12T02:11:49.193Z,2.40
2023-03-12T02:14:17.562Z,2.57
2023-03-12T02:16:46.200Z,3.97
2023-03-12T02:19:19.787Z,8.27
2023-03-12T02:21:47.454Z,4.20
2023-03-12T02:24:23.785Z,5.67
2023-03-12T02:26:52.910Z,5.33
2023-03-12T02:29:20.984Z,3.97
2023-03-12T02:31:54.509Z,6.97
2023-03-12T02:34:22.311Z,5.77
2023-03-12T02:36:50.606Z,5.30
2023-03-12T02:39:19.673Z,6.73
2023-03-12T02:41:53.596Z,6.03
2023-03-12T02:44:25.282Z,5.33
2023-03-12T02:46:55.493Z,8.60
2023-03-12T02:49:25.947Z,6.37
2023-03-12T02:51:54.143Z,5.13
2023-03-12T02:54:22.800Z,4.53
2023-03-12T02:56:51.091Z,7.13
2023-03-12T02:59:20.697Z,4.63
2023-03-12T03:01:54.465Z,3.30
2023-03-12T03:04:22.375Z,4.63
2023-03-12T03:06:50.529Z,6.40
2023-03-12T03:09:19.256Z,3.97
2023-03-12T03:11:47.016Z,4.97
2023-03-12T03:14:14.657Z,3.80
2023-03-12T03:16:42.289Z,4.03
2023-03-12T03:19:11.358Z,5.60
2023-03-12T03:21:39.418Z,4.20
2023-03-12T03:24:07.555Z,7.20
2023-03-12T03:26:35.243Z,4.93
2023-03-12T03:29:02.968Z,5.93
2023-03-12T03:31:31.745Z,5.40
2023-03-12T03:33:59.641Z,4.30
2023-03-12T03:36:28.703Z,4.67
2023-03-12T03:38:56.388Z,4.23
2023-03-12T03:41:24.476Z,4.53
2023-03-12T03:43:52.116Z,3.03
2023-03-12T03:46:19.794Z,4.23
2023-03-12T03:48:47.651Z,5.37
2023-03-12T03:51:15.525Z,4.97
2023-03-12T03:53:44.623Z,3.77
2023-03-12T03:56:14.667Z,5.33
2023-03-12T03:58:42.837Z,4.63
2023-03-12T04:01:10.958Z,5.53
2023-03-12T04:03:38.615Z,4.60
2023-03-12T04:06:08.182Z,7.00
2023-03-12T04:08:37.465Z,6.40
2023-03-12T04:11:10.268Z,4.20
2023-03-12T04:13:38.075Z,4.57
2023-03-12T04:16:06.433Z,3.97
2023-03-12T04:18:35.984Z,3.23
2023-03-12T04:21:03.800Z,3.77
2023-03-12T04:23:31.487Z,5.17
2023-03-12T04:25:59.563Z,6.30
2023-03-12T04:28:28.616Z,4.33
2023-03-12T04:30:56.845Z,6.90
2023-03-12T04:33:24.524Z,6.10
2023-03-12T04:35:52.857Z,5.00
2023-03-12T04:38:21.334Z,5.57
2023-03-12T04:40:57.815Z,7.00
2023-03-12T04:43:25.530Z,5.43
2023-03-12T04:45:54.544Z,9.97
2023-03-12T04:48:22.221Z,4.43
2023-03-12T04:50:50.502Z,5.97
2023-03-12T04:53:18.415Z,9.37
2023-03-12T04:55:46.162Z,7.37
2023-03-12T04:58:13.946Z,4.60
2023-03-12T05:00:42.143Z,5.27
2023-03-12T05:03:11.159Z,6.43
2023-03-12T05:05:38.840Z,5.47
2023-03-12T05:08:07.004Z,3.63
2023-03-12T05:10:35.107Z,5.20
2023-03-12T05:13:02.737Z,6.20
2023-03-12T05:15:30.490Z,7.53
2023-03-12T05:17:58.163Z,5.10
2023-03-12T05:20:27.097Z,7.13
2023-03-12T05:22:54.736Z,3.80
2023-03-12T05:25:22.372Z,5.53
2023-03-12T05:27:50.067Z,5.00
2023-03-12T05:30:18.315Z,4.70
2023-03-12T05:32:46.532Z,3.40
2023-03-12T05:35:14.498Z,5.13
2023-03-12T05:37:43.434Z,5.93
2023-03-12T05:40:12.600Z,5.67
2023-03-12T05:42:40.337Z,5.63
2023-03-12T05:45:09.248Z,5.53
2023-03-12T05:47:36.993Z,3.90
2023-03-12T05:50:05.380Z,9.03
2023-03-12T05:52:33.041Z,4.83
2023-03-12T05:55:02.145Z,4.23
2023-03-12T05:57:30.407Z,5.20
2023-03-12T05:59:57.998Z,4.80
2023-03-12T06:02:25.724Z,3.73
2023-03-12T06:04:53.454Z,6.87
2023-03-12T06:07:21.158Z,3.83
2023-03-12T06:09:48.823Z,5.97
2023-03-12T06:12:17.730Z,6.93
2023-03-12T06:14:45.512Z,5.67
2023-03-12T06:17:13.338Z,5.87
2023-03-12T06:19:40.954Z,5.37
2023-03-12T06:22:08.613Z,7.70
2023-03-12T06:24:36.243Z,7.63
2023-03-12T06:27:04.093Z,4.80
2023-03-12T06:29:33.117Z,7.30
2023-03-12T06:32:00.798Z,5.83
2023-03-12T06:34:28.446Z,4.70
2023-03-12T06:36:56.162Z,4.93
2023-03-12T06:39:23.875Z,3.40
2023-03-12T06:41:52.563Z,5.27
2023-03-12T06:44:20.256Z,5.60
2023-03-12T06:46:49.365Z,5.30
2023-03-12T06:49:16.965Z,5.17
2023-03-12T06:51:44.592Z,4.23
2023-03-12T06:54:12.299Z,6.10
2023-03-12T06:56:40.122Z,5.23
2023-03-12T06:59:08.073Z,4.80
2023-03-12T07:01:35.865Z,4.20
2023-03-12T07:04:04.938Z,6.40
2023-03-12T07:06:32.743Z,5.10
2023-03-12T07:09:00.481Z,5.70
2023-03-12T07:11:28.112Z,6.37
2023-03-12T07:13:55.886Z,5.97
2023-03-12T07:16:23.588Z,4.43
2023-03-12T07:18:51.230Z,3.60
2023-03-12T07:21:22.729Z,5.17
2023-03-12T07:23:50.782Z,4.77
2023-03-12T07:26:19.243Z,5.33
2023-03-12T07:28:47.305Z,8.20
2023-03-12T07:31:14.951Z,5.40
2023-03-12T07:33:42.695Z,4.27
2023-03-12T07:36:10.573Z,5.47
2023-03-12T07:38:39.683Z,3.03
2023-03-12T07:41:07.752Z,4.00
2023-03-12T07:43:35.540Z,4.93
2023-03-12T07:46:03.577Z,5.53
2023-03-12T07:48:31.235Z,4.60
2023-03-12T07:50:59.117Z,3.53
2023-03-12T07:53:26.720Z,3.20
2023-03-12T07:55:56.148Z,4.53
2023-03-12T07:58:24.045Z,4.30
2023-03-12T08:00:53.524Z,6.77
2023-03-12T08:03:21.397Z,4.20
2023-03-12T08:05:57.261Z,6.60
2023-03-12T08:08:27.416Z,5.00
2023-03-12T08:10:56.666Z,3.73
2023-03-12T08:13:24.582Z,3.07
2023-03-12T08:15:53.241Z,3.73
2023-03-12T08:18:21.540Z,5.33
2023-03-12T08:20:51.141Z,4.83
2023-03-12T08:23:19.179Z,7.27
2023-03-12T08:25:49.237Z,9.00
2023-03-12T08:28:19.468Z,4.77
2023-03-12T08:30:48.654Z,17.50
2023-03-12T08:33:16.513Z,9.10
2023-03-12T08:35:44.533Z,5.33
2023-03-12T08:38:13.024Z,7.07
2023-03-12T08:40:40.830Z,3.87
2023-03-12T08:43:08.906Z,4.43
2023-03-12T08:45:38.619Z,3.33
2023-03-12T08:48:07.612Z,4.63
2023-03-12T08:50:35.240Z,7.73
2023-03-12T08:53:02.887Z,5.70
2023-03-12T08:55:30.644Z,3.30
2023-03-12T08:57:59.687Z,4.43
2023-03-12T09:00:27.322Z,7.93
2023-03-12T09:02:58.257Z,4.70
2023-03-12T09:05:28.066Z,3.40
2023-03-12T09:07:55.727Z,2.30
2023-03-12T09:10:23.493Z,3.20
2023-03-12T09:12:51.110Z,3.13
2023-03-12T09:15:18.977Z,4.83
2023-03-12T09:17:47.900Z,2.50
2023-03-12T09:20:16.941Z,1.77
2023-03-12T09:22:44.601Z,3.23
2023-03-12T09:25:13.142Z,3.77
2023-03-12T09:27:42.488Z,5.33
2023-03-12T09:30:12.882Z,2.27
2023-03-12T09:32:40.584Z,3.07
2023-03-12T09:35:09.932Z,6.80
2023-03-12T09:37:39.114Z,3.60
2023-03-12T09:40:08.656Z,5.87
2023-03-12T09:42:42.370Z,4.33
2023-03-12T09:45:17.571Z,4.53
2023-03-12T09:47:50.137Z,2.67
2023-03-12T09:50:26.681Z,4.07
2023-03-12T09:53:00.352Z,5.53
2023-03-12T09:55:32.321Z,6.93
2023-03-12T09:58:00.081Z,7.33
2023-03-12T10:00:31.127Z,2.67
2023-03-12T10:03:23.957Z,2.93
2023-03-12T10:06:04.056Z,3.23
2023-03-12T10:08:45.096Z,3.50
2023-03-12T10:11:24.057Z,5.00
2023-03-12T10:14:06.068Z,4.47
2023-03-12T10:16:53.756Z,6.73
2023-03-12T10:19:38.028Z,6.20
2023-03-12T10:22:15.308Z,3.97
2023-03-12T10:24:57.505Z,3.43
2023-03-12T10:27:29.440Z,3.70
2023-03-12T10:29:58.560Z,3.53
2023-03-12T10:32:32.139Z,5.80
2023-03-12T10:35:03.258Z,5.77
2023-03-12T10:37:38.297Z,5.30
2023-03-12T10:40:13.458Z,3.67
2023-03-12T10:42:41.143Z,5.50
2023-03-12T10:45:22.000Z,8.30
2023-03-12T10:47:52.949Z,9.20
2023-03-12T10:50:23.464Z,9.77
2023-03-12T10:52:54.576Z,6.37
2023-03-12T10:55:27.322Z,6.17
2023-03-12T10:57:55.379Z,5.03
2023-03-12T11:00:26.180Z,2.70
2023-03-12T11:03:00.363Z,3.37
2023-03-12T11:05:31.092Z,7.13
2023-03-12T11:08:01.862Z,5.67
2023-03-12T11:10:43.882Z,5.07
2023-03-12T11:13:24.891Z,4.93
2023-03-12T11:15:53.885Z,3.17
2023-03-12T11:18:25.397Z,3.80
2023-03-12T11:20:56.443Z,6.60
2023-03-12T11:23:27.599Z,3.63
2023-03-12T11:25:59.297Z,3.77
2023-03-12T11:28:36.447Z,3.30
2023-03-12T11:31:07.618Z,2.93
2023-03-12T11:33:35.452Z,4.93
2023-03-12T11:36:25.112Z,5.43
2023-03-12T11:39:04.275Z,4.23
2023-03-12T11:41:49.400Z,9.87
2023-03-12T11:44:26.196Z,8.80
2023-03-12T11:47:07.672Z,7.73
2023-03-12T11:49:55.178Z,6.43
2023-03-12T11:52:33.378Z,4.63
2023-03-12T11:55:16.406Z,7.57
2023-03-12T11:57:58.813Z,6.47
2023-03-12T12:00:32.244Z,4.00
2023-03-12T12:03:24.940Z,3.23
2023-03-12T12:06:00.519Z,5.27
2023-03-12T12:08:38.970Z,5.67
2023-03-12T12:11:15.588Z,6.07
2023-03-12T12:13:58.531Z,3.90
2023-03-12T12:16:52.354Z,9.27
2023-03-12T12:19:29.211Z,6.13
2023-03-12T12:22:14.995Z,4.60
2023-03-12T12:25:02.325Z,6.03
2023-03-12T12:27:39.921Z,8.07
2023-03-12T12:30:20.637Z,5.37
2023-03-12T12:33:06.257Z,4.20
2023-03-12T12:35:37.994Z,4.50
2023-03-12T12:38:14.203Z,5.47
2023-03-12T12:40:45.322Z,5.47
2023-03-12T12:43:27.910Z,4.80
2023-03-12T12:46:04.198Z,5.13
2023-03-12T12:48:36.313Z,5.87
2023-03-12T12:51:08.774Z,9.10
2023-03-12T12:53:44.870Z,7.63
2023-03-12T12:56:20.608Z,7.87
2023-03-12T12:59:04.994Z,6.80
2023-03-12T13:01:36.514Z,4.10
2023-03-12T13:04:12.220Z,8.23
2023-03-12T13:06:57.978Z,7.50
2023-03-12T13:09:38.406Z,5.90
2023-03-12T13:12:15.628Z,9.10
2023-03-12T13:14:44.672Z,7.17
2023-03-12T13:17:28.913Z,11.13
2023-03-12T13:20:10.798Z,8.03
2023-03-12T13:22:54.560Z,5.67
2023-03-12T13:25:31.401Z,7.37
2023-03-12T13:28:18.018Z,5.83
2023-03-12T13:30:51.339Z,5.00
2023-03-12T13:33:37.000Z,6.70
2023-03-12T13:36:11.302Z,7.97
2023-03-12T13:38:52.882Z,6.83
2023-03-12T13:41:32.447Z,5.70
2023-03-12T13:44:00.563Z,5.27
2023-03-12T13:46:41.147Z,7.63
2023-03-12T13:49:17.065Z,6.80
2023-03-12T13:51:48.063Z,4.60
2023-03-12T13:54:19.966Z,8.00
2023-03-12T13:56:57.855Z,4.97
2023-03-12T13:59:28.110Z,6.47
2023-03-12T14:02:00.492Z,6.23
2023-03-12T14:04:35.972Z,9.10
2023-03-12T14:07:29.919Z,5.97
2023-03-12T14:10:08.960Z,6.67
2023-03-12T14:12:45.019Z,9.20
2023-03-12T14:15:25.881Z,6.93
2023-03-12T14:17:58.005Z,7.60
2023-03-12T14:20:30.705Z,5.97
2023-03-12T14:23:01.841Z,2.47
2023-03-12T14:25:38.829Z,5.67
2023-03-12T14:28:14.513Z,5.93
2023-03-12T14:30:48.456Z,7.10
2023-03-12T14:33:17.571Z,5.13
2023-03-12T14:35:52.171Z,7.93
2023-03-12T14:38:26.272Z,4.73
2023-03-12T14:40:58.782Z,5.53
2023-03-12T14:43:29.377Z,3.30
2023-03-12T14:45:58.592Z,4.47
2023-03-12T14:48:30.757Z,5.17
2023-03-12T14:51:04.189Z,5.83
2023-03-12T14:53:35.746Z,5.97
2023-03-12T14:56:07.453Z,5.97
2023-03-12T14:58:36.670Z,4.97
2023-03-12T15:01:08.383Z,3.73
2023-03-12T15:03:43.531Z,4.77
2023-03-12T15:06:18.730Z,5.17
2023-03-12T15:08:46.730Z,5.33
2023-03-12T15:11:15.409Z,9.70
2023-03-12T15:13:47.247Z,5.10
2023-03-12T15:16:15.151Z,5.20
2023-03-12T15:18:43.757Z,3.63
2023-03-12T15:21:11.721Z,6.10
2023-03-12T15:23:45.530Z,4.60
2023-03-12T15:26:16.705Z,4.90
2023-03-12T15:28:45.119Z,4.80
2023-03-12T15:31:15.689Z,4.97
2023-03-12T15:33:44.585Z,5.70
2023-03-12T15:36:26.941Z,4.23
2023-03-12T15:39:00.317Z,5.73
2023-03-12T15:41:30.796Z,6.53
2023-03-12T15:44:00.768Z,5.87
2023-03-12T15:46:29.673Z,5.83
2023-03-12T15:49:00.104Z,9.30
2023-03-12T15:51:31.695Z,7.37
2023-03-12T15:54:07.494Z,8.07
2023-03-12T15:56:36.807Z,8.03
2023-03-12T15:59:20.833Z,6.50
2023-03-12T16:01:49.833Z,7.97
2023-03-12T16:04:19.407Z,10.50
2023-03-12T16:06:48.827Z,4.40
2023-03-12T16:09:20.859Z,6.33
2023-03-12T16:11:49.386Z,8.60
2023-03-12T16:14:21.125Z,4.50
2023-03-12T16:16:49.036Z,13.27
2023-03-12T16:19:19.137Z,9.10
2023-03-12T16:21:46.931Z,11.17
2023-03-12T16:24:16.448Z,7.90
2023-03-12T16:26:50.098Z,10.00
2023-03-12T16:29:19.533Z,7.03
2023-03-12T16:31:52.467Z,9.43
2023-03-12T16:34:20.214Z,8.30
2023-03-12T16:36:48.050Z,10.33
2023-03-12T16:39:17.750Z,14.20
2023-03-12T16:41:48.234Z,7.90
2023-03-12T16:44:20.823Z,11.83
2023-03-12T16:46:48.637Z,11.60
2023-03-12T16:49:20.798Z,13.63
2023-03-12T16:51:48.993Z,10.87
2023-03-12T16:54:16.678Z,12.20
2023-03-12T16:56:47.820Z,12.10
2023-03-12T16:59:24.655Z,10.47
2023-03-12T17:01:52.503Z,6.97
2023-03-12T17:04:20.469Z,10.73
2023-03-12T17:06:48.212Z,9.90
2023-03-12T17:09:15.800Z,7.77
2023-03-12T17:11:43.632Z,10.47
2023-03-12T17:14:19.660Z,9.97
2023-03-12T17:16:47.271Z,10.10
2023-03-12T17:19:15.132Z,9.60
2023-03-12T17:21:44.010Z,9.90
2023-03-12T17:24:13.875Z,14.77
2023-03-12T17:26:41.642Z,16.13
2023-03-12T17:29:09.272Z,15.50
2023-03-12T17:31:38.391Z,15.37
2023-03-12T17:34:06.404Z,18.47
2023-03-12T17:36:37.014Z,17.50
2023-03-12T17:39:04.753Z,25.30
2023-03-12T17:41:32.961Z,20.00
2023-03-12T17:44:02.102Z,18.27
2023-03-12T17:46:30.558Z,17.63
2023-03-12T17:49:00.296Z,18.13
2023-03-12T17:51:27.942Z,21.17
2023-03-12T17:53:55.650Z,16.00
2023-03-12T17:56:23.359Z,23.67
2023-03-12T17:58:51.045Z,18.23
2023-03-12T18:01:18.752Z,16.47
2023-03-12T18:03:46.593Z,16.33
2023-03-12T18:06:15.812Z,15.70
2023-03-12T18:08:46.186Z,24.50
2023-03-12T18:11:13.921Z,40.57
2023-03-12T18:13:41.570Z,36.07
2023-03-12T18:16:10.449Z,25.00
2023-03-12T18:18:38.138Z,22.37
2023-03-12T18:21:06.295Z,20.27
2023-03-12T18:23:35.335Z,20.00
2023-03-12T18:26:03.618Z,18.00
2023-03-12T18:28:31.420Z,20.17
2023-03-12T18:30:59.625Z,15.10
2023-03-12T18:33:27.379Z,15.07
2023-03-12T18:35:56.324Z,19.80
2023-03-12T18:38:24.018Z,16.80
2023-03-12T18:40:53.722Z,15.70
2023-03-12T18:43:22.064Z,14.70
2023-03-12T18:45:50.827Z,25.97
2023-03-12T18:48:18.636Z,13.60
2023-03-12T18:50:46.291Z,15.00
2023-03-12T18:53:14.049Z,15.63
2023-03-12T18:55:42.093Z,21.57
2023-03-12T18:58:11.166Z,18.10
2023-03-12T19:00:39.052Z,21.27
2023-03-12T19:03:06.827Z,23.10
2023-03-12T19:05:35.061Z,16.53
2023-03-12T19:08:02.987Z,21.30
2023-03-12T19:10:30.743Z,14.47
2023-03-12T19:12:59.121Z,17.33
2023-03-12T19:15:28.765Z,15.27
2023-03-12T19:17:57.047Z,15.53
2023-03-12T19:20:25.010Z,15.33
2023-03-12T19:22:52.595Z,15.40
2023-03-12T19:25:20.596Z,21.03
2023-03-12T19:27:48.508Z,13.93
2023-03-12T19:30:16.702Z,14.00
2023-03-12T19:32:46.003Z,13.13
2023-03-12T19:35:15.181Z,10.47
2023-03-12T19:37:42.897Z,15.87
2023-03-12T19:40:13.527Z,13.20
2023-03-12T19:42:41.578Z,14.97
2023-03-12T19:45:10.834Z,11.83
2023-03-12T19:47:38.529Z,14.80
2023-03-12T19:50:09.058Z,11.83
2023-03-12T19:52:36.851Z,16.27
2023-03-12T19:55:05.792Z,25.77
2023-03-12T19:57:35.320Z,14.07
2023-03-12T20:00:07.313Z,14.67
2023-03-12T20:02:35.275Z,15.77
2023-03-12T20:05:04.230Z,17.07
2023-03-12T20:07:33.561Z,14.17
2023-03-12T20:10:01.326Z,13.90
2023-03-12T20:12:29.116Z,15.13
2023-03-12T20:14:56.816Z,15.93
2023-03-12T20:17:24.673Z,15.85
2023-03-12T20:19:52.268Z,10.43
2023-03-12T20:22:20.105Z,21.53
2023-03-12T20:24:49.095Z,13.85
2023-03-12T20:27:17.854Z,17.25
2023-03-12T20:29:46.044Z,13.90
2023-03-12T20:32:14.073Z,18.55
2023-03-12T20:34:41.881Z,13.17
2023-03-12T20:37:09.548Z,9.87
2023-03-12T20:39:37.437Z,14.00
2023-03-12T20:42:06.713Z,13.63
2023-03-12T20:44:34.441Z,11.70
2023-03-12T20:47:02.429Z,10.93
2023-03-12T20:49:30.144Z,16.33
2023-03-12T20:51:58.604Z,11.50
2023-03-12T20:54:28.030Z,9.17
2023-03-12T20:56:55.762Z,8.00
2023-03-12T20:59:24.778Z,9.00
2023-03-12T21:01:52.371Z,17.00
2023-03-12T21:04:20.253Z,14.03
2023-03-12T21:06:51.494Z,7.40
2023-03-12T21:09:19.687Z,9.88
2023-03-12T21:11:47.543Z,15.20
2023-03-12T21:14:15.178Z,9.50
2023-03-12T21:16:44.173Z,11.07
2023-03-12T21:19:11.930Z,10.97
2023-03-12T21:21:39.722Z,16.20
2023-03-12T21:24:08.460Z,13.73
2023-03-12T21:26:36.430Z,18.90
2023-03-12T21:29:04.874Z,14.40
2023-03-12T21:31:32.576Z,17.63
2023-03-12T21:34:02.436Z,14.13
2023-03-12T21:36:30.316Z,13.50
2023-03-12T21:38:58.148Z,16.87
2023-03-12T21:41:25.850Z,18.50
2023-03-12T21:43:53.648Z,19.48
2023-03-12T21:46:24.533Z,15.95
2023-03-12T21:48:53.814Z,12.75
2023-03-12T21:51:26.049Z,17.15
2023-03-12T21:53:55.272Z,23.70
2023-03-12T21:56:25.263Z,12.60
2023-03-12T21:58:53.515Z,19.83
2023-03-12T22:01:21.564Z,26.77
2023-03-12T22:03:49.315Z,16.20
2023-03-12T22:06:17.082Z,15.27
2023-03-12T22:08:48.000Z,14.77
2023-03-12T22:11:16.584Z,10.20
2023-03-12T22:13:44.496Z,16.08
2023-03-12T22:16:14.089Z,13.23
2023-03-12T22:18:44.021Z,8.27
2023-03-12T22:21:16.154Z,12.93
2023-03-12T22:23:43.889Z,12.18
2023-03-12T22:26:12.978Z,14.10
2023-03-12T22:28:40.941Z,17.25
2023-03-12T22:31:09.645Z,7.72
2023-03-12T22:33:37.685Z,9.98
2023-03-12T22:36:07.830Z,12.15
2023-03-12T22:38:36.956Z,12.73
2023-03-12T22:41:18.194Z,18.50
2023-03-12T22:43:46.955Z,12.15
2023-03-12T22:46:16.857Z,11.07
2023-03-12T22:48:44.840Z,7.75
2023-03-12T22:51:13.937Z,7.53
2023-03-12T22:53:41.655Z,9.30
2023-03-12T22:56:11.314Z,11.93
2023-03-12T22:58:43.447Z,19.98
2023-03-12T23:01:12.540Z,13.50
2023-03-12T23:03:41.827Z,17.85
2023-03-12T23:06:10.337Z,10.00
2023-03-12T23:08:38.769Z,14.40
2023-03-12T23:11:07.641Z,15.48
2023-03-12T23:13:37.425Z,10.15
2023-03-12T23:16:11.549Z,11.65
2023-03-12T23:18:39.601Z,8.70
2023-03-12T23:21:09.244Z,16.10
2023-03-12T23:23:39.320Z,11.55
2023-03-12T23:26:09.193Z,6.38
2023-03-12T23:28:36.861Z,8.80
2023-03-12T23:31:07.691Z,10.52
2023-03-12T23:33:37.503Z,5.63
2023-03-12T23:36:08.045Z,11.13
2023-03-12T23:38:37.659Z,4.65
2023-03-12T23:41:07.795Z,10.52
2023-03-12T23:43:36.793Z,11.50
2023-03-12T23:46:06.476Z,10.70
2023-03-12T23:48:35.770Z,11.68
2023-03-12T23:51:12.371Z,11.57
2023-03-12T23:53:42.081Z,13.73
2023-03-12T23:56:12.159Z,8.52
2023-03-12T23:58:39.963Z,10.35
